sensor_id;sensor_type;location;lat;lon;timestamp;P1;durP1;ratioP1;P2;durP2;ratioP2
8177;SDS011;4130;48.740;9.132;2023-05-16T00:02:00;4.40;;;3.30;;
8177;SDS011;4130;48.740;9.132;2023-05-16T00:04:27;3.47;;;3.17;;
8177;SDS011;4130;48.740;9.132;2023-05-16T00:06:54;3.33;;;3.07;;
8177;SDS011;4130;48.740;9.132;2023-05-16T00:09:22;4.27;;;3.43;;
8177;SDS011;4130;48.740;9.132;2023-05-16T00:11:49;3.40;;;3.10;;
8177;SDS011;4130;48.740;9.132;2023-05-16T00:14:16;3.23;;;2.93;;
8177;SDS011;4130;48.740;9.132;2023-05-16T00:16:43;4.77;;;3.50;;
8177;SDS011;4130;48.740;9.132;2023-05-16T00:19:12;3.63;;;3.27;;
8177;SDS011;4130;48.740;9.132;2023-05-16T00:21:39;3.80;;;3.20;;
8177;SDS011;4130;48.740;9.132;2023-05-16T00:24:06;4.60;;;4.20;;
8177;SDS011;4130;48.740;9.132;2023-05-16T00:26:33;4.97;;;3.70;;
8177;SDS011;4130;48.740;9.132;2023-05-16T00:29:00;5.33;;;4.47;;
8177;SDS011;4130;48.740;9.132;2023-05-16T00:31:26;5.50;;;4.77;;
8177;SDS011;4130;48.740;9.132;2023-05-16T00:33:53;6.53;;;5.40;;
8177;SDS011;4130;48.740;9.132;2023-05-16T00:36:22;5.50;;;4.97;;
8177;SDS011;4130;48.740;9.132;2023-05-16T00:38:49;6.97;;;5.77;;
8177;SDS011;4130;48.740;9.132;2023-05-16T00:41:15;6.57;;;5.87;;
8177;SDS011;4130;48.740;9.132;2023-05-16T00:43:43;10.33;;;6.97;;
8177;SDS011;4130;48.740;9.132;2023-05-16T00:46:09;7.80;;;6.30;;
8177;SDS011;4130;48.740;9.132;2023-05-16T00:48:36;9.00;;;6.47;;
8177;SDS011;4130;48.740;9.132;2023-05-16T00:51:03;7.40;;;6.27;;
8177;SDS011;4130;48.740;9.132;2023-05-16T00:53:34;7.53;;;6.00;;
8177;SDS011;4130;48.740;9.132;2023-05-16T00:56:02;6.50;;;5.67;;
8177;SDS011;4130;48.740;9.132;2023-05-16T00:58:31;7.03;;;5.97;;
8177;SDS011;4130;48.740;9.132;2023-05-16T01:00:58;7.00;;;5.77;;
8177;SDS011;4130;48.740;9.132;2023-05-16T01:03:27;6.97;;;6.00;;
8177;SDS011;4130;48.740;9.132;2023-05-16T01:05:55;7.03;;;5.47;;
8177;SDS011;4130;48.740;9.132;2023-05-16T01:08:23;7.03;;;5.40;;
8177;SDS011;4130;48.740;9.132;2023-05-16T01:10:56;6.53;;;5.40;;
8177;SDS011;4130;48.740;9.132;2023-05-16T01:13:29;7.40;;;5.77;;
8177;SDS011;4130;48.740;9.132;2023-05-16T01:16:04;8.10;;;6.53;;
8177;SDS011;4130;48.740;9.132;2023-05-16T01:18:37;8.10;;;6.73;;
8177;SDS011;4130;48.740;9.132;2023-05-16T01:21:08;7.77;;;6.67;;
8177;SDS011;4130;48.740;9.132;2023-05-16T01:23:44;8.03;;;6.93;;
8177;SDS011;4130;48.740;9.132;2023-05-16T01:26:20;9.03;;;7.43;;
8177;SDS011;4130;48.740;9.132;2023-05-16T01:28:49;9.53;;;7.53;;
8177;SDS011;4130;48.740;9.132;2023-05-16T01:31:17;7.97;;;7.17;;
8177;SDS011;4130;48.740;9.132;2023-05-16T01:33:44;10.27;;;8.00;;
8177;SDS011;4130;48.740;9.132;2023-05-16T01:36:12;9.57;;;7.77;;
8177;SDS011;4130;48.740;9.132;2023-05-16T01:38:49;10.03;;;7.80;;
8177;SDS011;4130;48.740;9.132;2023-05-16T01:41:29;8.93;;;7.23;;
8177;SDS011;4130;48.740;9.132;2023-05-16T01:44:06;11.00;;;7.97;;
8177;SDS011;4130;48.740;9.132;2023-05-16T01:46:39;10.63;;;8.00;;
8177;SDS011;4130;48.740;9.132;2023-05-16T01:49:13;10.53;;;7.87;;
8177;SDS011;4130;48.740;9.132;2023-05-16T01:51:42;9.27;;;8.07;;
8177;SDS011;4130;48.740;9.132;2023-05-16T01:54:14;10.20;;;7.70;;
8177;SDS011;4130;48.740;9.132;2023-05-16T01:56:46;11.57;;;8.30;;
8177;SDS011;4130;48.740;9.132;2023-05-16T01:59:18;13.80;;;8.30;;
8177;SDS011;4130;48.740;9.132;2023-05-16T02:01:46;12.67;;;9.20;;
8177;SDS011;4130;48.740;9.132;2023-05-16T02:04:13;11.97;;;8.70;;
8177;SDS011;4130;48.740;9.132;2023-05-16T02:06:40;10.27;;;8.23;;
8177;SDS011;4130;48.740;9.132;2023-05-16T02:09:07;12.40;;;8.50;;
8177;SDS011;4130;48.740;9.132;2023-05-16T02:11:34;11.60;;;8.93;;
8177;SDS011;4130;48.740;9.132;2023-05-16T02:14:02;11.67;;;8.47;;
8177;SDS011;4130;48.740;9.132;2023-05-16T02:16:29;11.07;;;8.63;;
8177;SDS011;4130;48.740;9.132;2023-05-16T02:18:56;12.87;;;9.27;;
8177;SDS011;4130;48.740;9.132;2023-05-16T02:21:23;12.00;;;8.67;;
8177;SDS011;4130;48.740;9.132;2023-05-16T02:23:50;13.27;;;9.20;;
8177;SDS011;4130;48.740;9.132;2023-05-16T02:26:17;11.80;;;8.97;;
8177;SDS011;4130;48.740;9.132;2023-05-16T02:28:44;16.53;;;10.10;;
8177;SDS011;4130;48.740;9.132;2023-05-16T02:31:12;14.17;;;9.47;;
8177;SDS011;4130;48.740;9.132;2023-05-16T02:33:39;14.60;;;9.63;;
8177;SDS011;4130;48.740;9.132;2023-05-16T02:36:06;15.63;;;10.30;;
8177;SDS011;4130;48.740;9.132;2023-05-16T02:38:33;11.93;;;8.80;;
8177;SDS011;4130;48.740;9.132;2023-05-16T02:41:00;12.73;;;9.30;;
8177;SDS011;4130;48.740;9.132;2023-05-16T02:43:27;13.00;;;9.20;;
8177;SDS011;4130;48.740;9.132;2023-05-16T02:45:54;13.17;;;9.00;;
8177;SDS011;4130;48.740;9.132;2023-05-16T02:48:22;15.17;;;9.87;;
8177;SDS011;4130;48.740;9.132;2023-05-16T02:50:49;13.63;;;9.80;;
8177;SDS011;4130;48.740;9.132;2023-05-16T02:53:17;13.07;;;9.80;;
8177;SDS011;4130;48.740;9.132;2023-05-16T02:55:43;15.67;;;10.00;;
8177;SDS011;4130;48.740;9.132;2023-05-16T02:58:11;14.57;;;9.67;;
8177;SDS011;4130;48.740;9.132;2023-05-16T03:00:38;14.07;;;10.17;;
8177;SDS011;4130;48.740;9.132;2023-05-16T03:03:05;13.87;;;9.10;;
8177;SDS011;4130;48.740;9.132;2023-05-16T03:05:33;12.03;;;9.77;;
8177;SDS011;4130;48.740;9.132;2023-05-16T03:08:00;14.00;;;9.73;;
8177;SDS011;4130;48.740;9.132;2023-05-16T03:10:27;17.57;;;10.47;;
8177;SDS011;4130;48.740;9.132;2023-05-16T03:12:53;16.10;;;10.10;;
8177;SDS011;4130;48.740;9.132;2023-05-16T03:15:20;13.33;;;9.43;;
8177;SDS011;4130;48.740;9.132;2023-05-16T03:17:47;16.83;;;10.33;;
8177;SDS011;4130;48.740;9.132;2023-05-16T03:20:14;13.13;;;9.20;;
8177;SDS011;4130;48.740;9.132;2023-05-16T03:22:42;15.37;;;10.10;;
8177;SDS011;4130;48.740;9.132;2023-05-16T03:25:09;14.40;;;10.00;;
8177;SDS011;4130;48.740;9.132;2023-05-16T03:27:36;14.83;;;9.30;;
8177;SDS011;4130;48.740;9.132;2023-05-16T03:30:04;14.90;;;10.13;;
8177;SDS011;4130;48.740;9.132;2023-05-16T03:32:32;15.67;;;10.43;;
8177;SDS011;4130;48.740;9.132;2023-05-16T03:34:59;13.03;;;9.00;;
8177;SDS011;4130;48.740;9.132;2023-05-16T03:37:27;15.53;;;11.00;;
8177;SDS011;4130;48.740;9.132;2023-05-16T03:39:55;12.60;;;9.70;;
8177;SDS011;4130;48.740;9.132;2023-05-16T03:42:22;15.07;;;10.60;;
8177;SDS011;4130;48.740;9.132;2023-05-16T03:44:49;15.63;;;9.50;;
8177;SDS011;4130;48.740;9.132;2023-05-16T03:47:16;14.23;;;9.90;;
8177;SDS011;4130;48.740;9.132;2023-05-16T03:49:43;16.00;;;10.13;;
8177;SDS011;4130;48.740;9.132;2023-05-16T03:52:10;15.13;;;9.87;;
8177;SDS011;4130;48.740;9.132;2023-05-16T03:54:36;14.63;;;10.00;;
8177;SDS011;4130;48.740;9.132;2023-05-16T03:57:05;15.13;;;10.23;;
8177;SDS011;4130;48.740;9.132;2023-05-16T03:59:32;14.00;;;9.83;;
8177;SDS011;4130;48.740;9.132;2023-05-16T04:02:00;15.23;;;10.07;;
8177;SDS011;4130;48.740;9.132;2023-05-16T04:04:26;14.67;;;10.10;;
8177;SDS011;4130;48.740;9.132;2023-05-16T04:06:53;15.30;;;9.80;;
8177;SDS011;4130;48.740;9.132;2023-05-16T04:09:20;14.90;;;10.07;;
8177;SDS011;4130;48.740;9.132;2023-05-16T04:11:47;15.90;;;10.30;;
8177;SDS011;4130;48.740;9.132;2023-05-16T04:14:15;14.23;;;9.30;;
8177;SDS011;4130;48.740;9.132;2023-05-16T04:16:41;16.03;;;10.73;;
8177;SDS011;4130;48.740;9.132;2023-05-16T04:19:08;14.43;;;10.13;;
8177;SDS011;4130;48.740;9.132;2023-05-16T04:21:35;16.03;;;9.90;;
8177;SDS011;4130;48.740;9.132;2023-05-16T04:24:02;15.10;;;9.73;;
8177;SDS011;4130;48.740;9.132;2023-05-16T04:26:29;19.00;;;10.83;;
8177;SDS011;4130;48.740;9.132;2023-05-16T04:28:56;14.83;;;10.83;;
8177;SDS011;4130;48.740;9.132;2023-05-16T04:31:24;15.60;;;10.33;;
8177;SDS011;4130;48.740;9.132;2023-05-16T04:33:51;17.17;;;10.17;;
8177;SDS011;4130;48.740;9.132;2023-05-16T04:36:18;15.60;;;10.80;;
8177;SDS011;4130;48.740;9.132;2023-05-16T04:38:46;18.80;;;10.67;;
8177;SDS011;4130;48.740;9.132;2023-05-16T04:41:13;15.77;;;10.80;;
8177;SDS011;4130;48.740;9.132;2023-05-16T04:43:39;18.17;;;11.53;;
8177;SDS011;4130;48.740;9.132;2023-05-16T04:46:07;16.90;;;11.50;;
8177;SDS011;4130;48.740;9.132;2023-05-16T04:48:35;18.13;;;12.10;;
8177;SDS011;4130;48.740;9.132;2023-05-16T04:51:02;21.77;;;12.03;;
8177;SDS011;4130;48.740;9.132;2023-05-16T04:53:29;16.80;;;11.07;;
8177;SDS011;4130;48.740;9.132;2023-05-16T04:55:56;18.37;;;11.20;;
8177;SDS011;4130;48.740;9.132;2023-05-16T04:58:23;18.50;;;12.00;;
8177;SDS011;4130;48.740;9.132;2023-05-16T05:00:50;16.93;;;11.03;;
8177;SDS011;4130;48.740;9.132;2023-05-16T05:03:18;18.67;;;12.07;;
8177;SDS011;4130;48.740;9.132;2023-05-16T05:05:53;18.03;;;12.03;;
8177;SDS011;4130;48.740;9.132;2023-05-16T05:08:20;19.93;;;12.47;;
8177;SDS011;4130;48.740;9.132;2023-05-16T05:10:47;18.23;;;11.20;;
8177;SDS011;4130;48.740;9.132;2023-05-16T05:13:14;16.57;;;11.50;;
8177;SDS011;4130;48.740;9.132;2023-05-16T05:15:42;20.33;;;11.83;;
8177;SDS011;4130;48.740;9.132;2023-05-16T05:18:08;18.80;;;12.27;;
8177;SDS011;4130;48.740;9.132;2023-05-16T05:20:35;19.13;;;11.80;;
8177;SDS011;4130;48.740;9.132;2023-05-16T05:23:05;20.20;;;12.13;;
8177;SDS011;4130;48.740;9.132;2023-05-16T05:25:54;17.93;;;11.80;;
8177;SDS011;4130;48.740;9.132;2023-05-16T05:28:31;20.10;;;12.10;;
8177;SDS011;4130;48.740;9.132;2023-05-16T05:31:01;16.97;;;10.93;;
8177;SDS011;4130;48.740;9.132;2023-05-16T05:33:36;16.83;;;11.93;;
8177;SDS011;4130;48.740;9.132;2023-05-16T05:36:12;19.13;;;11.57;;
8177;SDS011;4130;48.740;9.132;2023-05-16T05:38:46;16.67;;;11.73;;
8177;SDS011;4130;48.740;9.132;2023-05-16T05:41:13;17.07;;;12.23;;
8177;SDS011;4130;48.740;9.132;2023-05-16T05:43:40;17.03;;;11.33;;
8177;SDS011;4130;48.740;9.132;2023-05-16T05:46:07;18.27;;;12.10;;
8177;SDS011;4130;48.740;9.132;2023-05-16T05:48:34;18.00;;;11.33;;
8177;SDS011;4130;48.740;9.132;2023-05-16T05:51:02;17.80;;;11.50;;
8177;SDS011;4130;48.740;9.132;2023-05-16T05:53:29;16.23;;;10.73;;
8177;SDS011;4130;48.740;9.132;2023-05-16T05:55:57;18.17;;;12.50;;
8177;SDS011;4130;48.740;9.132;2023-05-16T05:58:24;19.33;;;12.17;;
8177;SDS011;4130;48.740;9.132;2023-05-16T06:00:50;17.90;;;11.67;;
8177;SDS011;4130;48.740;9.132;2023-05-16T06:03:17;16.13;;;11.10;;
8177;SDS011;4130;48.740;9.132;2023-05-16T06:05:45;15.67;;;10.90;;
8177;SDS011;4130;48.740;9.132;2023-05-16T06:08:13;17.23;;;11.53;;
8177;SDS011;4130;48.740;9.132;2023-05-16T06:10:41;14.60;;;10.70;;
8177;SDS011;4130;48.740;9.132;2023-05-16T06:13:09;17.47;;;12.00;;
8177;SDS011;4130;48.740;9.132;2023-05-16T06:15:36;19.90;;;11.97;;
8177;SDS011;4130;48.740;9.132;2023-05-16T06:18:03;16.03;;;10.40;;
8177;SDS011;4130;48.740;9.132;2023-05-16T06:20:29;13.63;;;9.77;;
8177;SDS011;4130;48.740;9.132;2023-05-16T06:22:57;15.97;;;11.30;;
8177;SDS011;4130;48.740;9.132;2023-05-16T06:25:24;16.50;;;10.77;;
8177;SDS011;4130;48.740;9.132;2023-05-16T06:27:50;14.73;;;10.63;;
8177;SDS011;4130;48.740;9.132;2023-05-16T06:30:19;16.17;;;10.57;;
8177;SDS011;4130;48.740;9.132;2023-05-16T06:32:45;15.67;;;10.73;;
8177;SDS011;4130;48.740;9.132;2023-05-16T06:35:12;17.90;;;10.70;;
8177;SDS011;4130;48.740;9.132;2023-05-16T06:37:39;17.83;;;10.73;;
8177;SDS011;4130;48.740;9.132;2023-05-16T06:40:06;14.43;;;9.93;;
8177;SDS011;4130;48.740;9.132;2023-05-16T06:42:34;14.57;;;9.43;;
8177;SDS011;4130;48.740;9.132;2023-05-16T06:45:01;16.57;;;10.57;;
8177;SDS011;4130;48.740;9.132;2023-05-16T06:47:29;15.83;;;10.63;;
8177;SDS011;4130;48.740;9.132;2023-05-16T06:49:56;14.33;;;9.43;;
8177;SDS011;4130;48.740;9.132;2023-05-16T06:52:23;13.80;;;9.40;;
8177;SDS011;4130;48.740;9.132;2023-05-16T06:54:50;13.80;;;9.47;;
8177;SDS011;4130;48.740;9.132;2023-05-16T06:57:17;14.80;;;9.73;;
8177;SDS011;4130;48.740;9.132;2023-05-16T06:59:44;14.17;;;9.33;;
8177;SDS011;4130;48.740;9.132;2023-05-16T07:02:11;12.07;;;9.00;;
8177;SDS011;4130;48.740;9.132;2023-05-16T07:04:39;12.77;;;9.20;;
8177;SDS011;4130;48.740;9.132;2023-05-16T07:07:06;12.77;;;8.90;;
8177;SDS011;4130;48.740;9.132;2023-05-16T07:09:33;12.03;;;8.90;;
8177;SDS011;4130;48.740;9.132;2023-05-16T07:12:00;13.83;;;9.23;;
8177;SDS011;4130;48.740;9.132;2023-05-16T07:14:27;13.00;;;9.73;;
8177;SDS011;4130;48.740;9.132;2023-05-16T07:16:53;13.37;;;8.83;;
8177;SDS011;4130;48.740;9.132;2023-05-16T07:19:20;11.37;;;8.60;;
8177;SDS011;4130;48.740;9.132;2023-05-16T07:21:48;12.70;;;9.10;;
8177;SDS011;4130;48.740;9.132;2023-05-16T07:24:15;12.00;;;8.60;;
8177;SDS011;4130;48.740;9.132;2023-05-16T07:26:42;11.67;;;8.30;;
8177;SDS011;4130;48.740;9.132;2023-05-16T07:29:09;10.47;;;7.97;;
8177;SDS011;4130;48.740;9.132;2023-05-16T07:31:35;9.60;;;7.33;;
8177;SDS011;4130;48.740;9.132;2023-05-16T07:34:02;13.20;;;8.47;;
8177;SDS011;4130;48.740;9.132;2023-05-16T07:36:30;11.37;;;7.87;;
8177;SDS011;4130;48.740;9.132;2023-05-16T07:38:58;10.70;;;7.43;;
8177;SDS011;4130;48.740;9.132;2023-05-16T07:41:25;9.13;;;6.93;;
8177;SDS011;4130;48.740;9.132;2023-05-16T07:43:52;9.20;;;7.00;;
8177;SDS011;4130;48.740;9.132;2023-05-16T07:46:19;8.90;;;6.67;;
8177;SDS011;4130;48.740;9.132;2023-05-16T07:48:45;10.47;;;6.57;;
8177;SDS011;4130;48.740;9.132;2023-05-16T07:51:12;10.00;;;6.17;;
8177;SDS011;4130;48.740;9.132;2023-05-16T07:53:39;7.63;;;5.87;;
8177;SDS011;4130;48.740;9.132;2023-05-16T07:56:07;6.93;;;5.70;;
8177;SDS011;4130;48.740;9.132;2023-05-16T07:58:34;8.40;;;6.63;;
8177;SDS011;4130;48.740;9.132;2023-05-16T08:01:01;8.77;;;6.73;;
8177;SDS011;4130;48.740;9.132;2023-05-16T08:03:28;8.33;;;6.27;;
8177;SDS011;4130;48.740;9.132;2023-05-16T08:05:55;11.57;;;6.80;;
8177;SDS011;4130;48.740;9.132;2023-05-16T08:08:21;10.27;;;6.87;;
8177;SDS011;4130;48.740;9.132;2023-05-16T08:10:48;9.30;;;6.43;;
8177;SDS011;4130;48.740;9.132;2023-05-16T08:13:16;9.87;;;5.87;;
8177;SDS011;4130;48.740;9.132;2023-05-16T08:15:44;8.40;;;6.17;;
8177;SDS011;4130;48.740;9.132;2023-05-16T08:18:11;10.10;;;6.33;;
8177;SDS011;4130;48.740;9.132;2023-05-16T08:20:39;9.50;;;6.53;;
8177;SDS011;4130;48.740;9.132;2023-05-16T08:23:06;9.40;;;6.70;;
8177;SDS011;4130;48.740;9.132;2023-05-16T08:25:33;8.80;;;7.23;;
8177;SDS011;4130;48.740;9.132;2023-05-16T08:28:00;10.13;;;6.73;;
8177;SDS011;4130;48.740;9.132;2023-05-16T08:30:28;9.07;;;7.00;;
8177;SDS011;4130;48.740;9.132;2023-05-16T08:32:55;9.33;;;7.10;;
8177;SDS011;4130;48.740;9.132;2023-05-16T08:35:22;8.23;;;6.90;;
8177;SDS011;4130;48.740;9.132;2023-05-16T08:37:48;7.77;;;6.37;;
8177;SDS011;4130;48.740;9.132;2023-05-16T08:40:15;8.63;;;6.30;;
8177;SDS011;4130;48.740;9.132;2023-05-16T08:42:43;7.10;;;5.83;;
8177;SDS011;4130;48.740;9.132;2023-05-16T08:45:10;7.67;;;5.80;;
8177;SDS011;4130;48.740;9.132;2023-05-16T08:47:39;6.10;;;5.30;;
8177;SDS011;4130;48.740;9.132;2023-05-16T08:50:09;7.90;;;5.80;;
8177;SDS011;4130;48.740;9.132;2023-05-16T08:52:36;5.40;;;4.90;;
8177;SDS011;4130;48.740;9.132;2023-05-16T08:55:05;6.97;;;5.43;;
8177;SDS011;4130;48.740;9.132;2023-05-16T08:57:35;7.17;;;5.37;;
8177;SDS011;4130;48.740;9.132;2023-05-16T09:00:03;7.07;;;5.63;;
8177;SDS011;4130;48.740;9.132;2023-05-16T09:02:35;7.33;;;5.30;;
8177;SDS011;4130;48.740;9.132;2023-05-16T09:05:04;7.23;;;4.90;;
8177;SDS011;4130;48.740;9.132;2023-05-16T09:07:33;7.47;;;5.73;;
8177;SDS011;4130;48.740;9.132;2023-05-16T09:10:01;7.13;;;5.13;;
8177;SDS011;4130;48.740;9.132;2023-05-16T09:12:29;8.83;;;6.17;;
8177;SDS011;4130;48.740;9.132;2023-05-16T09:14:56;8.17;;;5.30;;
8177;SDS011;4130;48.740;9.132;2023-05-16T09:17:24;6.93;;;5.60;;
8177;SDS011;4130;48.740;9.132;2023-05-16T09:19:51;7.77;;;6.00;;
8177;SDS011;4130;48.740;9.132;2023-05-16T09:22:22;7.27;;;5.90;;
8177;SDS011;4130;48.740;9.132;2023-05-16T09:24:49;8.87;;;6.90;;
8177;SDS011;4130;48.740;9.132;2023-05-16T09:27:16;9.93;;;6.17;;
8177;SDS011;4130;48.740;9.132;2023-05-16T09:29:49;7.93;;;6.03;;
8177;SDS011;4130;48.740;9.132;2023-05-16T09:32:16;9.43;;;6.70;;
8177;SDS011;4130;48.740;9.132;2023-05-16T09:34:43;10.27;;;7.13;;
8177;SDS011;4130;48.740;9.132;2023-05-16T09:37:13;11.10;;;7.30;;
8177;SDS011;4130;48.740;9.132;2023-05-16T09:39:47;9.80;;;7.07;;
8177;SDS011;4130;48.740;9.132;2023-05-16T09:42:14;11.10;;;7.50;;
8177;SDS011;4130;48.740;9.132;2023-05-16T09:44:44;9.27;;;7.00;;
8177;SDS011;4130;48.740;9.132;2023-05-16T09:47:13;9.90;;;6.83;;
8177;SDS011;4130;48.740;9.132;2023-05-16T09:49:40;9.97;;;7.20;;
8177;SDS011;4130;48.740;9.132;2023-05-16T09:52:07;10.63;;;7.17;;
8177;SDS011;4130;48.740;9.132;2023-05-16T09:54:35;10.30;;;7.50;;
8177;SDS011;4130;48.740;9.132;2023-05-16T09:57:03;9.47;;;6.50;;
8177;SDS011;4130;48.740;9.132;2023-05-16T09:59:30;9.97;;;6.90;;
8177;SDS011;4130;48.740;9.132;2023-05-16T10:02:01;9.67;;;7.10;;
8177;SDS011;4130;48.740;9.132;2023-05-16T10:04:30;9.40;;;6.97;;
8177;SDS011;4130;48.740;9.132;2023-05-16T10:06:56;9.23;;;6.30;;
8177;SDS011;4130;48.740;9.132;2023-05-16T10:09:28;9.38;;;6.30;;
8177;SDS011;4130;48.740;9.132;2023-05-16T10:11:58;9.95;;;7.13;;
8177;SDS011;4130;48.740;9.132;2023-05-16T10:14:29;9.60;;;6.75;;
8177;SDS011;4130;48.740;9.132;2023-05-16T10:16:59;8.77;;;6.00;;
8177;SDS011;4130;48.740;9.132;2023-05-16T10:19:27;9.40;;;6.10;;
8177;SDS011;4130;48.740;9.132;2023-05-16T10:21:57;8.40;;;5.95;;
8177;SDS011;4130;48.740;9.132;2023-05-16T10:24:28;8.93;;;6.40;;
8177;SDS011;4130;48.740;9.132;2023-05-16T10:27:02;8.48;;;5.88;;
8177;SDS011;4130;48.740;9.132;2023-05-16T10:29:31;10.18;;;5.68;;
8177;SDS011;4130;48.740;9.132;2023-05-16T10:31:58;11.65;;;6.88;;
8177;SDS011;4130;48.740;9.132;2023-05-16T10:34:25;9.63;;;6.13;;
8177;SDS011;4130;48.740;9.132;2023-05-16T10:36:52;7.70;;;5.75;;
8177;SDS011;4130;48.740;9.132;2023-05-16T10:39:20;7.32;;;5.68;;
8177;SDS011;4130;48.740;9.132;2023-05-16T10:41:47;8.52;;;6.05;;
8177;SDS011;4130;48.740;9.132;2023-05-16T10:44:15;9.65;;;6.70;;
8177;SDS011;4130;48.740;9.132;2023-05-16T10:46:43;6.95;;;5.35;;
8177;SDS011;4130;48.740;9.132;2023-05-16T10:49:19;8.50;;;5.47;;
8177;SDS011;4130;48.740;9.132;2023-05-16T10:54:34;8.18;;;5.60;;
8177;SDS011;4130;48.740;9.132;2023-05-16T10:57:05;7.90;;;5.60;;
8177;SDS011;4130;48.740;9.132;2023-05-16T10:59:43;7.47;;;5.40;;
8177;SDS011;4130;48.740;9.132;2023-05-16T11:02:26;6.63;;;5.33;;
8177;SDS011;4130;48.740;9.132;2023-05-16T11:04:57;6.33;;;4.73;;
8177;SDS011;4130;48.740;9.132;2023-05-16T11:07:25;5.77;;;4.70;;
8177;SDS011;4130;48.740;9.132;2023-05-16T11:10:01;6.33;;;4.33;;
8177;SDS011;4130;48.740;9.132;2023-05-16T11:15:19;4.57;;;3.57;;
8177;SDS011;4130;48.740;9.132;2023-05-16T11:17:50;4.33;;;3.60;;
8177;SDS011;4130;48.740;9.132;2023-05-16T11:20:23;4.37;;;3.30;;
8177;SDS011;4130;48.740;9.132;2023-05-16T11:22:55;5.70;;;4.10;;
8177;SDS011;4130;48.740;9.132;2023-05-16T11:25:50;3.47;;;3.10;;
8177;SDS011;4130;48.740;9.132;2023-05-16T11:28:25;4.43;;;3.43;;
8177;SDS011;4130;48.740;9.132;2023-05-16T11:30:53;4.37;;;3.30;;
8177;SDS011;4130;48.740;9.132;2023-05-16T11:33:21;3.50;;;3.17;;
8177;SDS011;4130;48.740;9.132;2023-05-16T11:35:58;3.57;;;3.10;;
8177;SDS011;4130;48.740;9.132;2023-05-16T11:38:30;3.43;;;2.87;;
8177;SDS011;4130;48.740;9.132;2023-05-16T11:41:00;3.20;;;2.90;;
8177;SDS011;4130;48.740;9.132;2023-05-16T11:43:35;3.13;;;2.83;;
8177;SDS011;4130;48.740;9.132;2023-05-16T11:46:03;3.27;;;2.83;;
8177;SDS011;4130;48.740;9.132;2023-05-16T11:48:30;3.17;;;2.87;;
8177;SDS011;4130;48.740;9.132;2023-05-16T11:50:57;3.93;;;2.80;;
8177;SDS011;4130;48.740;9.132;2023-05-16T11:53:23;2.90;;;2.60;;
8177;SDS011;4130;48.740;9.132;2023-05-16T11:55:51;2.83;;;2.57;;
8177;SDS011;4130;48.740;9.132;2023-05-16T11:58:18;4.03;;;2.63;;
8177;SDS011;4130;48.740;9.132;2023-05-16T12:00:49;3.93;;;2.73;;
8177;SDS011;4130;48.740;9.132;2023-05-16T12:03:17;3.13;;;2.50;;
8177;SDS011;4130;48.740;9.132;2023-05-16T12:05:50;3.10;;;2.50;;
8177;SDS011;4130;48.740;9.132;2023-05-16T12:08:18;3.00;;;2.50;;
8177;SDS011;4130;48.740;9.132;2023-05-16T12:10:47;2.33;;;2.13;;
8177;SDS011;4130;48.740;9.132;2023-05-16T12:13:17;2.60;;;2.40;;
8177;SDS011;4130;48.740;9.132;2023-05-16T12:15:45;3.23;;;2.83;;
8177;SDS011;4130;48.740;9.132;2023-05-16T12:18:12;4.07;;;2.80;;
8177;SDS011;4130;48.740;9.132;2023-05-16T12:20:39;4.50;;;2.80;;
8177;SDS011;4130;48.740;9.132;2023-05-16T12:23:09;2.70;;;2.50;;
8177;SDS011;4130;48.740;9.132;2023-05-16T12:25:37;2.57;;;2.37;;
8177;SDS011;4130;48.740;9.132;2023-05-16T12:28:07;2.60;;;2.40;;
8177;SDS011;4130;48.740;9.132;2023-05-16T12:30:38;3.23;;;2.80;;
8177;SDS011;4130;48.740;9.132;2023-05-16T12:33:07;3.60;;;2.80;;
8177;SDS011;4130;48.740;9.132;2023-05-16T12:35:36;3.27;;;2.73;;
8177;SDS011;4130;48.740;9.132;2023-05-16T12:38:04;3.10;;;2.80;;
8177;SDS011;4130;48.740;9.132;2023-05-16T12:40:32;3.30;;;3.00;;
8177;SDS011;4130;48.740;9.132;2023-05-16T12:43:01;4.33;;;3.20;;
8177;SDS011;4130;48.740;9.132;2023-05-16T12:45:28;3.37;;;3.00;;
8177;SDS011;4130;48.740;9.132;2023-05-16T12:47:56;5.80;;;3.23;;
8177;SDS011;4130;48.740;9.132;2023-05-16T12:50:30;3.20;;;2.90;;
8177;SDS011;4130;48.740;9.132;2023-05-16T12:52:59;3.33;;;3.03;;
8177;SDS011;4130;48.740;9.132;2023-05-16T12:55:26;3.43;;;3.13;;
8177;SDS011;4130;48.740;9.132;2023-05-16T12:57:53;3.30;;;2.83;;
8177;SDS011;4130;48.740;9.132;2023-05-16T13:00:22;4.17;;;2.67;;
8177;SDS011;4130;48.740;9.132;2023-05-16T13:02:49;2.60;;;2.40;;
8177;SDS011;4130;48.740;9.132;2023-05-16T13:05:17;2.40;;;2.20;;
8177;SDS011;4130;48.740;9.132;2023-05-16T13:07:47;2.50;;;2.30;;
8177;SDS011;4130;48.740;9.132;2023-05-16T13:10:15;2.83;;;2.40;;
8177;SDS011;4130;48.740;9.132;2023-05-16T13:12:44;2.20;;;2.00;;
8177;SDS011;4130;48.740;9.132;2023-05-16T13:15:12;2.33;;;2.10;;
8177;SDS011;4130;48.740;9.132;2023-05-16T13:17:40;2.20;;;2.00;;
8177;SDS011;4130;48.740;9.132;2023-05-16T13:20:09;2.57;;;2.23;;
8177;SDS011;4130;48.740;9.132;2023-05-16T13:22:40;2.20;;;2.00;;
8177;SDS011;4130;48.740;9.132;2023-05-16T13:25:08;2.27;;;2.13;;
8177;SDS011;4130;48.740;9.132;2023-05-16T13:27:35;2.67;;;2.07;;
8177;SDS011;4130;48.740;9.132;2023-05-16T13:30:02;2.20;;;2.00;;
8177;SDS011;4130;48.740;9.132;2023-05-16T13:32:30;2.93;;;1.80;;
8177;SDS011;4130;48.740;9.132;2023-05-16T13:34:56;1.60;;;1.50;;
8177;SDS011;4130;48.740;9.132;2023-05-16T13:37:23;1.70;;;1.60;;
8177;SDS011;4130;48.740;9.132;2023-05-16T13:39:53;1.67;;;1.57;;
8177;SDS011;4130;48.740;9.132;2023-05-16T13:42:20;1.90;;;1.70;;
8177;SDS011;4130;48.740;9.132;2023-05-16T13:44:48;1.53;;;1.43;;
8177;SDS011;4130;48.740;9.132;2023-05-16T13:47:15;1.43;;;1.30;;
8177;SDS011;4130;48.740;9.132;2023-05-16T13:49:42;1.97;;;1.60;;
8177;SDS011;4130;48.740;9.132;2023-05-16T13:52:09;1.87;;;1.50;;
8177;SDS011;4130;48.740;9.132;2023-05-16T13:54:35;1.90;;;1.80;;
8177;SDS011;4130;48.740;9.132;2023-05-16T13:57:05;2.10;;;1.50;;
8177;SDS011;4130;48.740;9.132;2023-05-16T13:59:32;1.63;;;1.53;;
8177;SDS011;4130;48.740;9.132;2023-05-16T14:01:59;1.87;;;1.50;;
8177;SDS011;4130;48.740;9.132;2023-05-16T14:04:25;1.70;;;1.60;;
8177;SDS011;4130;48.740;9.132;2023-05-16T14:06:53;1.50;;;1.40;;
8177;SDS011;4130;48.740;9.132;2023-05-16T14:09:20;1.40;;;1.30;;
8177;SDS011;4130;48.740;9.132;2023-05-16T14:11:47;1.63;;;1.53;;
8177;SDS011;4130;48.740;9.132;2023-05-16T14:14:16;1.40;;;1.30;;
8177;SDS011;4130;48.740;9.132;2023-05-16T14:16:43;1.67;;;1.57;;
8177;SDS011;4130;48.740;9.132;2023-05-16T14:19:10;1.70;;;1.20;;
8177;SDS011;4130;48.740;9.132;2023-05-16T14:21:37;1.50;;;1.40;;
8177;SDS011;4130;48.740;9.132;2023-05-16T14:24:04;1.30;;;1.20;;
8177;SDS011;4130;48.740;9.132;2023-05-16T14:26:31;1.30;;;1.30;;
8177;SDS011;4130;48.740;9.132;2023-05-16T14:28:58;1.30;;;1.20;;
8177;SDS011;4130;48.740;9.132;2023-05-16T14:31:27;1.43;;;1.33;;
8177;SDS011;4130;48.740;9.132;2023-05-16T14:33:54;1.10;;;1.10;;
8177;SDS011;4130;48.740;9.132;2023-05-16T14:36:24;1.63;;;1.53;;
8177;SDS011;4130;48.740;9.132;2023-05-16T14:38:50;2.23;;;1.23;;
8177;SDS011;4130;48.740;9.132;2023-05-16T14:41:17;1.33;;;1.23;;
8177;SDS011;4130;48.740;9.132;2023-05-16T14:43:45;1.67;;;1.43;;
8177;SDS011;4130;48.740;9.132;2023-05-16T14:46:11;1.30;;;1.20;;
8177;SDS011;4130;48.740;9.132;2023-05-16T14:48:39;1.30;;;1.30;;
8177;SDS011;4130;48.740;9.132;2023-05-16T14:51:06;1.47;;;1.37;;
8177;SDS011;4130;48.740;9.132;2023-05-16T14:53:33;1.33;;;1.23;;
8177;SDS011;4130;48.740;9.132;2023-05-16T14:56:00;1.63;;;1.30;;
8177;SDS011;4130;48.740;9.132;2023-05-16T14:58:27;1.73;;;1.20;;
8177;SDS011;4130;48.740;9.132;2023-05-16T15:00:54;0.97;;;0.97;;
8177;SDS011;4130;48.740;9.132;2023-05-16T15:03:21;1.40;;;1.30;;
8177;SDS011;4130;48.740;9.132;2023-05-16T15:05:49;1.00;;;0.90;;
8177;SDS011;4130;48.740;9.132;2023-05-16T15:08:16;1.17;;;1.07;;
8177;SDS011;4130;48.740;9.132;2023-05-16T15:10:43;2.47;;;1.20;;
8177;SDS011;4130;48.740;9.132;2023-05-16T15:13:10;1.00;;;1.00;;
8177;SDS011;4130;48.740;9.132;2023-05-16T15:15:36;1.10;;;1.00;;
8177;SDS011;4130;48.740;9.132;2023-05-16T15:18:03;2.37;;;1.10;;
8177;SDS011;4130;48.740;9.132;2023-05-16T15:20:30;1.47;;;1.13;;